Terminal Aerodrome Forecast
Issued by NWS

Home | Current Version | Previous Version | Graphics & Text | Print | Product List | Glossary On
Versions: 1 2 3 4 5 6 7 8 9 10 11 12 13 14 15 16 17
000
FTUS43 KMPX 041723
TAFRWF
TAF
KRWF 041723Z 0418/0518 30011G19KT P6SM SCT030
      TEMPO 0418/0420 BKN025
     FM050100 31008KT P6SM SKC
     FM050800 27005KT P6SM SKC
     FM051300 20006KT P6SM SKC=

USA.gov is the U.S. government's official web portal to all federal, state and local government web resources and services.